Time;durP1;ratioP1;P1;durP2;ratioP2;P2;SDS_P1;SDS_P2;PMS_P1;PMS_P2;Temp;Humidity;BMP_temperature;BMP_pressure;BME280_temperature;BME280_humidity;BME280_pressure;Samples;Min_cycle;Max_cycle;Signal;HPM_P1;HPM_P2
2021/06/17 00:01:59;;;;;;;;;;;;;;;16.66;100.00;100274.22;5116430;28;19911;-70
2021/06/17 00:04:24;;;;;;;;;;;;;;;16.68;100.00;100266.94;5098359;28;19915;-69
2021/06/17 00:06:49;;;;;;;;;;;;;;;16.62;100.00;100264.13;5116531;28;19912;-69
2021/06/17 00:09:15;;;;;;;;;;;;;;;16.59;100.00;100259.16;5116421;28;19919;-70
2021/06/17 00:11:40;;;;;;;;;;;;;;;16.35;100.00;100252.03;5116092;28;19919;-69
2021/06/17 00:14:05;;;;;;;;;;;;;;;16.28;100.00;100249.22;5116557;28;20005;-69
2021/06/17 00:16:31;;;;;;;;;;;;;;;16.25;100.00;100247.72;5116113;28;19918;-69
2021/06/17 00:18:56;;;;;;;;;;;;;;;16.31;100.00;100245.44;5116252;28;19989;-70
2021/06/17 00:21:21;;;;;;;;;;;;;;;16.36;100.00;100237.81;5116201;28;20003;-69
2021/06/17 00:23:47;;;;;;;;;;;;;;;16.48;100.00;100241.81;5116138;28;19922;-70
2021/06/17 00:26:12;;;;;;;;;;;;;;;16.46;100.00;100234.00;5116121;28;19919;-69
2021/06/17 00:28:37;;;;;;;;;;;;;;;16.38;100.00;100228.72;5116350;28;20010;-69
2021/06/17 00:31:03;;;;;;;;;;;;;;;16.33;100.00;100230.19;5097717;28;19911;-69
2021/06/17 00:33:28;;;;;;;;;;;;;;;16.27;100.00;100232.53;5097694;28;19911;-70
2021/06/17 00:35:54;;;;;;;;;;;;;;;16.25;100.00;100229.22;5115934;28;20267;-70
2021/06/17 00:38:19;;;;;;;;;;;;;;;16.37;100.00;100231.53;5115884;28;19918;-69
2021/06/17 00:40:44;;;;;;;;;;;;;;;16.37;100.00;100223.59;5116111;28;19988;-70
2021/06/17 00:43:10;;;;;;;;;;;;;;;16.39;100.00;100233.03;5115856;28;19911;-69
2021/06/17 00:45:37;;;;;;;;;;;;;;;16.28;100.00;100230.72;5115965;28;19919;-69
2021/06/17 00:48:03;;;;;;;;;;;;;;;16.02;100.00;100230.81;5097556;28;19934;-69
2021/06/17 00:50:35;;;;;;;;;;;;;;;15.87;100.00;100233.25;5115629;28;20370;-69
2021/06/17 00:53:00;;;;;;;;;;;;;;;15.90;100.00;100234.78;5115556;28;19912;-69
2021/06/17 00:55:25;;;;;;;;;;;;;;;15.91;100.00;100239.06;5115719;28;19920;-69
2021/06/17 00:57:51;;;;;;;;;;;;;;;15.94;100.00;100238.72;5115726;28;19955;-69
2021/06/17 01:00:16;;;;;;;;;;;;;;;15.95;100.00;100237.75;5115008;28;19916;-69
2021/06/17 01:02:42;;;;;;;;;;;;;;;15.80;100.00;100233.06;5114341;28;20368;-70
2021/06/17 01:05:12;;;;;;;;;;;;;;;15.78;100.00;100240.31;5097407;28;19980;-69
2021/06/17 01:07:37;;;;;;;;;;;;;;;15.76;100.00;100236.19;5115229;28;19922;-70
2021/06/17 01:10:03;;;;;;;;;;;;;;;15.69;100.00;100238.66;5114983;28;19912;-69
2021/06/17 01:12:32;;;;;;;;;;;;;;;15.69;100.00;100233.38;5115111;28;19912;-70
2021/06/17 01:15:05;;;;;;;;;;;;;;;15.63;100.00;100230.50;5096910;28;20402;-70
2021/06/17 01:17:33;;;;;;;;;;;;;;;15.56;100.00;100225.03;5115285;28;19918;-70
2021/06/17 01:20:02;;;;;;;;;;;;;;;15.53;100.00;100228.00;5114993;28;19966;-70
2021/06/17 01:22:31;;;;;;;;;;;;;;;15.56;100.00;100232.97;5096401;28;19919;-70
2021/06/17 01:24:56;;;;;;;;;;;;;;;15.56;100.00;100235.59;5114834;28;20010;-70
2021/06/17 01:27:24;;;;;;;;;;;;;;;15.50;100.00;100238.88;5114893;28;19957;-70
2021/06/17 01:29:56;;;;;;;;;;;;;;;15.42;100.00;100241.47;5114898;28;19915;-70
2021/06/17 01:32:23;;;;;;;;;;;;;;;15.34;100.00;100237.78;5114730;28;19968;-70
2021/06/17 01:34:49;;;;;;;;;;;;;;;15.28;100.00;100246.34;5114736;28;20003;-70
2021/06/17 01:37:16;;;;;;;;;;;;;;;15.39;100.00;100244.41;5096322;28;19916;-70
2021/06/17 01:39:42;;;;;;;;;;;;;;;15.46;100.00;100240.19;5096122;28;19912;-69
2021/06/17 01:42:09;;;;;;;;;;;;;;;15.46;100.00;100241.00;5114826;28;19915;-70
2021/06/17 01:44:35;;;;;;;;;;;;;;;15.45;100.00;100235.84;5114607;28;20413;-70
2021/06/17 01:47:02;;;;;;;;;;;;;;;15.46;100.00;100233.06;5114479;28;20007;-70
2021/06/17 01:49:28;;;;;;;;;;;;;;;15.56;100.00;100235.59;5114301;28;20033;-70
2021/06/17 01:51:54;;;;;;;;;;;;;;;15.64;100.00;100238.25;5114683;28;19924;-70
2021/06/17 01:54:24;;;;;;;;;;;;;;;15.73;100.00;100241.81;5114406;28;19960;-70
2021/06/17 01:56:50;;;;;;;;;;;;;;;15.76;100.00;100237.03;5114474;28;19912;-70
2021/06/17 01:59:16;;;;;;;;;;;;;;;15.61;100.00;100235.94;5096072;28;19919;-70
2021/06/17 02:01:42;;;;;;;;;;;;;;;15.56;100.00;100236.44;5114397;28;19912;-70
2021/06/17 02:04:08;;;;;;;;;;;;;;;15.41;100.00;100231.88;5114472;28;20385;-70
2021/06/17 02:06:34;;;;;;;;;;;;;;;15.21;100.00;100234.75;5095839;28;19911;-70
2021/06/17 02:08:59;;;;;;;;;;;;;;;15.13;100.00;100236.53;5113920;28;19918;-70
2021/06/17 02:11:26;;;;;;;;;;;;;;;14.98;100.00;100234.44;5113842;28;19912;-70
2021/06/17 02:13:52;;;;;;;;;;;;;;;14.96;100.00;100243.50;5113826;28;19955;-70
2021/06/17 02:16:19;;;;;;;;;;;;;;;14.95;100.00;100247.09;5095591;28;19922;-70
2021/06/17 02:18:45;;;;;;;;;;;;;;;14.77;100.00;100240.06;5113707;28;19961;-70
2021/06/17 02:21:12;;;;;;;;;;;;;;;14.72;100.00;100237.06;5095430;28;19911;-70
2021/06/17 02:23:38;;;;;;;;;;;;;;;14.67;100.00;100241.97;5095909;28;20005;-70
2021/06/17 02:26:05;;;;;;;;;;;;;;;14.66;100.00;100245.59;5114186;28;19934;-70
2021/06/17 02:28:32;;;;;;;;;;;;;;;14.68;100.00;100253.34;5113659;28;20018;-70
2021/06/17 02:31:00;;;;;;;;;;;;;;;14.68;100.00;100246.28;5095439;28;20006;-71
2021/06/17 02:33:26;;;;;;;;;;;;;;;14.58;100.00;100248.16;5113978;28;19911;-70
2021/06/17 02:35:52;;;;;;;;;;;;;;;14.50;100.00;100242.78;5113596;28;19994;-70
2021/06/17 02:38:21;;;;;;;;;;;;;;;14.49;100.00;100251.69;5113473;28;19922;-70
2021/06/17 02:40:47;;;;;;;;;;;;;;;14.50;100.00;100258.59;5113693;28;19915;-70
2021/06/17 02:43:19;;;;;;;;;;;;;;;14.50;100.00;100262.09;5095321;28;19922;-70
2021/06/17 02:45:45;;;;;;;;;;;;;;;14.70;100.00;100265.41;5113321;28;19912;-70
2021/06/17 02:48:11;;;;;;;;;;;;;;;14.82;100.00;100273.91;5113452;28;19934;-70
2021/06/17 02:50:37;;;;;;;;;;;;;;;14.93;100.00;100278.13;5113303;28;20387;-70
2021/06/17 02:53:02;;;;;;;;;;;;;;;14.86;100.00;100275.25;5095136;28;19911;-70
2021/06/17 02:55:28;;;;;;;;;;;;;;;14.95;100.00;100266.44;5113406;28;19958;-70
2021/06/17 02:58:02;;;;;;;;;;;;;;;15.07;100.00;100269.63;5095179;28;20361;-70
2021/06/17 03:00:29;;;;;;;;;;;;;;;15.22;100.00;100273.38;5112879;28;19912;-70
2021/06/17 03:02:57;;;;;;;;;;;;;;;15.31;100.00;100274.25;5113431;28;20290;-70
2021/06/17 03:05:24;;;;;;;;;;;;;;;15.41;100.00;100268.84;5113265;28;19915;-70
2021/06/17 03:07:51;;;;;;;;;;;;;;;15.49;100.00;100272.38;5113221;28;19912;-70
2021/06/17 03:10:19;;;;;;;;;;;;;;;15.60;100.00;100271.28;5113160;28;19919;-70
2021/06/17 03:12:45;;;;;;;;;;;;;;;15.67;100.00;100272.31;5094878;28;20375;-71
2021/06/17 03:15:11;;;;;;;;;;;;;;;15.73;100.00;100276.16;5113139;28;20389;-70
2021/06/17 03:17:40;;;;;;;;;;;;;;;15.67;100.00;100274.16;5113338;28;19911;-70
2021/06/17 03:20:08;;;;;;;;;;;;;;;15.75;100.00;100287.38;5113138;28;19912;-70
2021/06/17 03:22:34;;;;;;;;;;;;;;;15.85;100.00;100284.63;5094789;28;19911;-70
2021/06/17 03:25:02;;;;;;;;;;;;;;;15.94;100.00;100289.78;5114055;28;19919;-70
2021/06/17 03:27:28;;;;;;;;;;;;;;;15.98;100.00;100288.47;5116965;28;19926;-70
2021/06/17 03:29:54;;;;;;;;;;;;;;;15.89;100.00;100289.41;5117427;28;20014;-70
2021/06/17 03:32:21;;;;;;;;;;;;;;;15.92;100.00;100290.91;5117515;28;19918;-70
2021/06/17 03:34:47;;;;;;;;;;;;;;;16.02;100.00;100291.59;5117217;28;20367;-70
2021/06/17 03:37:15;;;;;;;;;;;;;;;16.21;100.00;100288.69;5116936;28;19912;-70
2021/06/17 03:39:42;;;;;;;;;;;;;;;16.36;100.00;100293.34;5117006;28;20052;-70
2021/06/17 03:42:09;;;;;;;;;;;;;;;16.48;100.00;100302.66;5098667;28;20507;-70
2021/06/17 03:44:35;;;;;;;;;;;;;;;16.55;100.00;100306.28;5117221;28;19918;-70
2021/06/17 03:47:01;;;;;;;;;;;;;;;16.65;100.00;100317.53;5116755;28;19915;-70
2021/06/17 03:49:27;;;;;;;;;;;;;;;16.76;100.00;100317.25;5116807;28;19916;-70
2021/06/17 03:51:53;;;;;;;;;;;;;;;16.87;100.00;100316.09;5098472;28;19918;-70
2021/06/17 03:54:27;;;;;;;;;;;;;;;16.95;100.00;100317.94;5098431;28;19912;-70
2021/06/17 03:56:53;;;;;;;;;;;;;;;17.04;100.00;100311.63;5116990;28;19911;-69
2021/06/17 03:59:20;;;;;;;;;;;;;;;17.12;100.00;100324.88;5116600;28;20381;-69
2021/06/17 04:01:45;;;;;;;;;;;;;;;17.26;100.00;100325.19;5116635;28;20342;-70
2021/06/17 04:04:11;;;;;;;;;;;;;;;17.20;100.00;100332.78;5116587;28;19912;-69
2021/06/17 04:06:37;;;;;;;;;;;;;;;17.25;100.00;100331.50;5116498;28;19912;-70
2021/06/17 04:09:04;;;;;;;;;;;;;;;17.19;100.00;100333.78;5116374;28;19916;-70
2021/06/17 04:11:29;;;;;;;;;;;;;;;17.38;100.00;100345.88;5116651;28;19911;-70
2021/06/17 04:13:55;;;;;;;;;;;;;;;17.42;100.00;100351.66;5116437;28;20439;-70
2021/06/17 04:16:22;;;;;;;;;;;;;;;17.47;100.00;100349.31;5116250;28;19911;-70
2021/06/17 04:18:49;;;;;;;;;;;;;;;17.45;100.00;100346.03;5097981;28;19922;-70
2021/06/17 04:21:15;;;;;;;;;;;;;;;17.39;100.00;100344.03;5116234;28;19911;-70
2021/06/17 04:23:42;;;;;;;;;;;;;;;17.43;100.00;100348.81;5096951;28;20435;-71
2021/06/17 04:26:07;;;;;;;;;;;;;;;17.49;100.00;100351.81;5115842;28;20079;-71
2021/06/17 04:28:33;;;;;;;;;;;;;;;17.56;100.00;100348.31;5116355;28;20450;-70
2021/06/17 04:30:59;;;;;;;;;;;;;;;17.68;100.00;100354.94;5116131;28;20276;-71
2021/06/17 04:33:25;;;;;;;;;;;;;;;17.79;100.00;100358.25;5097428;28;20295;-71
2021/06/17 04:35:51;;;;;;;;;;;;;;;17.93;100.00;100353.03;5114698;28;19916;-71
2021/06/17 04:38:18;;;;;;;;;;;;;;;18.00;100.00;100353.19;5113513;28;19927;-71
2021/06/17 04:40:45;;;;;;;;;;;;;;;18.09;100.00;100349.50;5112406;28;19915;-71
2021/06/17 04:43:11;;;;;;;;;;;;;;;18.14;100.00;100349.81;5096826;28;20309;-71
2021/06/17 04:45:36;;;;;;;;;;;;;;;18.17;100.00;100348.63;5096347;28;19915;-71
2021/06/17 04:48:08;;;;;;;;;;;;;;;18.31;100.00;100363.00;5112244;28;19972;-70
2021/06/17 04:50:33;;;;;;;;;;;;;;;18.54;100.00;100358.56;5096406;28;19915;-70
2021/06/17 04:52:58;;;;;;;;;;;;;;;18.65;100.00;100358.16;5114913;28;20302;-70
2021/06/17 04:55:24;;;;;;;;;;;;;;;18.77;100.00;100357.78;5114222;28;20405;-71
2021/06/17 04:57:49;;;;;;;;;;;;;;;18.93;100.00;100351.50;5115408;28;19916;-70
2021/06/17 05:00:15;;;;;;;;;;;;;;;18.96;100.00;100353.81;5115348;28;20001;-69
2021/06/17 05:02:40;;;;;;;;;;;;;;;18.98;100.00;100362.44;5097154;28;20293;-70
2021/06/17 05:05:08;;;;;;;;;;;;;;;19.05;100.00;100355.41;5115312;28;19912;-70
2021/06/17 05:12:43;;;;;;;;;;;;;;;19.53;100.00;100366.59;5115191;28;19919;-69
2021/06/17 05:15:08;;;;;;;;;;;;;;;19.61;100.00;100371.00;5096867;28;19915;-69
2021/06/17 05:17:34;;;;;;;;;;;;;;;19.60;100.00;100370.19;5096800;28;20358;-69
2021/06/17 05:19:59;;;;;;;;;;;;;;;19.60;100.00;100367.50;5114864;28;19937;-69
2021/06/17 05:22:25;;;;;;;;;;;;;;;19.62;100.00;100362.03;5115471;28;19912;-69
2021/06/17 05:24:50;;;;;;;;;;;;;;;19.90;100.00;100370.22;5114956;28;19911;-69
2021/06/17 05:27:16;;;;;;;;;;;;;;;20.24;100.00;100378.44;5096850;28;19977;-69
2021/06/17 05:29:41;;;;;;;;;;;;;;;20.55;100.00;100380.06;5114917;28;19912;-69
2021/06/17 05:32:07;;;;;;;;;;;;;;;20.68;100.00;100384.72;5114810;28;19938;-69
2021/06/17 05:34:32;;;;;;;;;;;;;;;20.59;100.00;100384.03;5114782;28;19919;-68
2021/06/17 05:36:57;;;;;;;;;;;;;;;20.63;100.00;100381.81;5113874;28;19920;-68
2021/06/17 05:39:23;;;;;;;;;;;;;;;20.80;100.00;100385.88;5096434;28;20404;-69
2021/06/17 05:41:48;;;;;;;;;;;;;;;20.74;100.00;100390.09;5114480;28;19922;-68
2021/06/17 05:44:13;;;;;;;;;;;;;;;20.83;100.00;100388.16;5114118;28;20006;-69
2021/06/17 05:46:42;;;;;;;;;;;;;;;20.80;100.00;100399.19;5096423;28;19946;-68
2021/06/17 05:49:07;;;;;;;;;;;;;;;20.97;100.00;100392.59;5112956;28;19922;-70
2021/06/17 05:51:33;;;;;;;;;;;;;;;21.21;100.00;100395.88;5114100;28;19994;-69
2021/06/17 05:54:00;;;;;;;;;;;;;;;21.55;100.00;100399.69;5114287;28;20427;-69
2021/06/17 05:56:25;;;;;;;;;;;;;;;21.73;100.00;100401.84;5114294;28;20370;-69
2021/06/17 05:58:51;;;;;;;;;;;;;;;22.11;100.00;100402.28;5114097;28;19939;-69
2021/06/17 06:01:17;;;;;;;;;;;;;;;22.33;100.00;100401.16;5114212;28;19918;-69
2021/06/17 06:03:42;;;;;;;;;;;;;;;22.31;100.00;100392.56;5114255;28;20419;-69
2021/06/17 06:06:08;;;;;;;;;;;;;;;22.57;100.00;100390.97;5113729;28;19915;-69
2021/06/17 06:08:33;;;;;;;;;;;;;;;22.92;100.00;100394.38;5096270;28;19911;-69
2021/06/17 06:10:58;;;;;;;;;;;;;;;22.92;100.00;100390.88;5113734;28;20378;-70
2021/06/17 06:13:24;;;;;;;;;;;;;;;22.89;100.00;100385.94;5113844;28;19999;-71
2021/06/17 06:15:49;;;;;;;;;;;;;;;22.47;100.00;100382.53;5113924;28;20358;-72
2021/06/17 06:18:15;;;;;;;;;;;;;;;22.79;100.00;100378.31;5096012;28;20060;-71
2021/06/17 06:20:41;;;;;;;;;;;;;;;23.33;100.00;100377.34;5095596;28;19911;-71
2021/06/17 06:23:07;;;;;;;;;;;;;;;23.38;100.00;100376.72;5114044;28;19912;-71
2021/06/17 06:25:33;;;;;;;;;;;;;;;23.71;100.00;100372.19;5114331;28;20283;-71
2021/06/17 06:27:58;;;;;;;;;;;;;;;24.28;100.00;100383.94;5095405;28;19920;-71
2021/06/17 06:30:24;;;;;;;;;;;;;;;24.45;100.00;100383.50;5113746;28;19911;-72
2021/06/17 06:32:49;;;;;;;;;;;;;;;24.13;100.00;100386.09;5113106;28;19916;-73
2021/06/17 06:35:14;;;;;;;;;;;;;;;23.98;100.00;100391.66;5113593;28;19912;-71
2021/06/17 06:37:40;;;;;;;;;;;;;;;23.96;100.00;100398.25;5113917;28;19968;-71
2021/06/17 06:40:06;;;;;;;;;;;;;;;23.69;100.00;100395.66;5112526;28;20387;-71
2021/06/17 06:42:31;;;;;;;;;;;;;;;23.55;100.00;100385.97;5112911;28;19945;-71
2021/06/17 06:44:57;;;;;;;;;;;;;;;23.54;100.00;100387.00;5113014;28;19926;-71
2021/06/17 06:47:22;;;;;;;;;;;;;;;23.45;100.00;100390.91;5094159;28;20378;-71
2021/06/17 06:49:48;;;;;;;;;;;;;;;23.33;100.00;100391.53;5111598;28;20014;-71
2021/06/17 06:52:13;;;;;;;;;;;;;;;23.45;100.00;100386.38;5110838;28;19915;-71
2021/06/17 06:54:38;;;;;;;;;;;;;;;23.64;100.00;100394.59;5093083;28;20311;-70
2021/06/17 06:57:04;;;;;;;;;;;;;;;23.74;100.00;100387.81;5110454;28;19916;-70
2021/06/17 06:59:29;;;;;;;;;;;;;;;24.32;100.00;100383.53;5107467;28;19923;-69
2021/06/17 07:01:56;;;;;;;;;;;;;;;24.76;100.00;100384.56;5111201;28;19915;-70
2021/06/17 07:04:21;;;;;;;;;;;;;;;25.16;100.00;100391.31;5095054;28;19998;-69
2021/06/17 07:06:47;;;;;;;;;;;;;;;25.55;100.00;100396.53;5111879;28;20015;-69
2021/06/17 07:09:13;;;;;;;;;;;;;;;25.72;100.00;100391.41;5112096;28;19951;-70
2021/06/17 07:11:38;;;;;;;;;;;;;;;25.80;100.00;100391.19;5113306;28;19955;-69
2021/06/17 07:14:06;;;;;;;;;;;;;;;26.13;100.00;100380.88;5111306;28;19912;-69
2021/06/17 07:16:31;;;;;;;;;;;;;;;26.46;100.00;100387.72;5110730;28;19916;-69
2021/06/17 07:18:56;;;;;;;;;;;;;;;26.61;100.00;100388.13;5111669;28;19918;-70
2021/06/17 07:21:22;;;;;;;;;;;;;;;26.65;100.00;100387.69;5111915;28;19916;-70
2021/06/17 07:23:50;;;;;;;;;;;;;;;26.94;100.00;100392.22;5112464;28;19923;-69
2021/06/17 07:26:16;;;;;;;;;;;;;;;26.63;100.00;100382.56;5113076;28;20366;-69
2021/06/17 07:28:41;;;;;;;;;;;;;;;26.85;100.00;100389.03;5112874;28;20002;-69
2021/06/17 07:31:07;;;;;;;;;;;;;;;27.25;100.00;100380.38;5112754;28;20014;-69
2021/06/17 07:33:32;;;;;;;;;;;;;;;27.48;100.00;100376.88;5112632;28;20343;-71
2021/06/17 07:35:57;;;;;;;;;;;;;;;27.59;100.00;100369.84;5113047;28;20369;-70
2021/06/17 07:38:23;;;;;;;;;;;;;;;27.84;100.00;100371.47;5094318;28;19919;-70
2021/06/17 07:40:48;;;;;;;;;;;;;;;27.76;100.00;100372.66;5112065;28;19938;-68
2021/06/17 07:43:13;;;;;;;;;;;;;;;28.00;100.00;100368.03;5111797;28;19919;-69
2021/06/17 07:45:39;;;;;;;;;;;;;;;28.24;100.00;100368.78;5111813;28;19916;-70
2021/06/17 07:48:04;;;;;;;;;;;;;;;28.57;100.00;100375.38;5111777;28;19915;-69
2021/06/17 07:50:30;;;;;;;;;;;;;;;28.79;89.74;100364.69;5111800;28;20438;-69
2021/06/17 07:52:55;;;;;;;;;;;;;;;28.90;74.21;100363.84;5112000;28;20418;-70
2021/06/17 07:55:21;;;;;;;;;;;;;;;28.68;80.45;100375.31;5112627;28;19919;-69
2021/06/17 07:57:46;;;;;;;;;;;;;;;28.90;77.13;100372.72;5113235;28;19919;-71
2021/06/17 08:00:11;;;;;;;;;;;;;;;29.09;83.71;100370.66;5112749;28;19919;-71
2021/06/17 08:02:37;;;;;;;;;;;;;;;28.99;76.94;100358.84;5111969;28;19916;-72
2021/06/17 08:05:03;;;;;;;;;;;;;;;29.13;81.13;100360.19;5112538;28;19962;-72
2021/06/17 08:07:28;;;;;;;;;;;;;;;29.39;78.73;100364.88;5093714;28;19916;-72
2021/06/17 08:09:53;;;;;;;;;;;;;;;29.36;75.77;100361.88;5111609;28;19915;-72
2021/06/17 08:12:20;;;;;;;;;;;;;;;29.34;70.22;100364.81;5114138;28;20007;-72
2021/06/17 08:14:45;;;;;;;;;;;;;;;29.53;72.19;100364.53;5114881;28;20374;-73
2021/06/17 08:17:10;;;;;;;;;;;;;;;29.40;72.49;100360.34;5116281;28;19919;-72
2021/06/17 08:19:36;;;;;;;;;;;;;;;29.80;71.19;100360.09;5115851;28;19919;-73
2021/06/17 08:22:04;;;;;;;;;;;;;;;29.95;74.89;100370.28;5114176;28;19915;-73
2021/06/17 08:24:29;;;;;;;;;;;;;;;29.77;69.40;100371.41;5114550;28;19918;-73
2021/06/17 08:26:55;;;;;;;;;;;;;;;29.87;66.19;100363.44;5114390;28;19912;-72
2021/06/17 08:29:20;;;;;;;;;;;;;;;30.22;67.32;100356.84;5114216;28;19918;-74
2021/06/17 08:31:45;;;;;;;;;;;;;;;30.23;68.27;100358.47;5113882;28;19916;-74
2021/06/17 08:34:11;;;;;;;;;;;;;;;30.22;64.50;100354.16;5113674;28;19973;-74
2021/06/17 08:36:37;;;;;;;;;;;;;;;30.41;65.77;100356.50;5116427;28;19912;-74
2021/06/17 08:39:03;;;;;;;;;;;;;;;30.66;68.53;100361.34;5116075;28;19911;-73
2021/06/17 08:41:28;;;;;;;;;;;;;;;30.43;57.83;100357.06;5115322;28;20057;-73
2021/06/17 08:43:53;;;;;;;;;;;;;;;30.43;56.95;100357.88;5115787;28;19912;-72
2021/06/17 08:46:19;;;;;;;;;;;;;;;30.51;55.33;100364.69;5116074;28;19919;-71
2021/06/17 08:48:44;;;;;;;;;;;;;;;30.48;56.21;100376.06;5115876;28;19916;-70
2021/06/17 08:51:10;;;;;;;;;;;;;;;30.29;56.67;100360.16;5097797;28;19911;-73
2021/06/17 08:53:36;;;;;;;;;;;;;;;30.46;56.05;100361.97;5115550;28;19911;-73
2021/06/17 08:56:01;;;;;;;;;;;;;;;30.67;55.88;100365.69;5115658;28;20283;-73
2021/06/17 08:58:28;;;;;;;;;;;;;;;30.85;59.91;100367.22;5115527;28;19912;-73
2021/06/17 09:00:53;;;;;;;;;;;;;;;31.21;57.39;100362.91;5115977;28;20000;-73
2021/06/17 09:03:19;;;;;;;;;;;;;;;31.25;56.70;100361.28;5086009;28;19989;-73
2021/06/17 09:05:48;;;;;;;;;;;;;;;31.33;53.71;100360.88;5112528;28;19969;-73
2021/06/17 09:08:17;;;;;;;;;;;;;;;31.48;53.18;100355.53;5113717;28;20443;-73
2021/06/17 09:10:42;;;;;;;;;;;;;;;31.62;53.80;100350.44;5114356;28;20383;-72
2021/06/17 09:13:09;;;;;;;;;;;;;;;31.64;42.83;100345.59;5114419;28;19927;-73
2021/06/17 09:15:38;;;;;;;;;;;;;;;31.27;44.85;100351.03;5112069;28;20329;-73
2021/06/17 09:18:08;;;;;;;;;;;;;;;31.51;44.85;100348.78;5114505;28;20317;-73
2021/06/17 09:20:33;;;;;;;;;;;;;;;31.31;41.50;100349.44;5111995;28;20371;-73
2021/06/17 09:23:15;;;;;;;;;;;;;;;31.34;42.14;100356.25;5095934;28;19912;-73
2021/06/17 09:25:51;;;;;;;;;;;;;;;31.49;46.94;100342.81;5115388;28;19911;-73
2021/06/17 09:28:16;;;;;;;;;;;;;;;31.83;43.47;100337.03;5115419;28;19920;-74
2021/06/17 09:30:42;;;;;;;;;;;;;;;31.50;40.67;100339.03;5114899;28;20431;-73
2021/06/17 09:33:11;;;;;;;;;;;;;;;31.55;41.61;100346.34;5114443;28;19955;-73
2021/06/17 09:35:47;;;;;;;;;;;;;;;31.78;47.40;100345.13;5114019;28;19912;-73
2021/06/17 09:38:12;;;;;;;;;;;;;;;31.74;42.82;100334.81;5111811;28;20374;-70
2021/06/17 09:40:50;;;;;;;;;;;;;;;31.63;43.00;100340.47;5114447;28;19922;-73
2021/06/17 09:43:18;;;;;;;;;;;;;;;31.82;45.61;100335.38;5113770;28;20350;-73
2021/06/17 09:45:55;;;;;;;;;;;;;;;32.06;47.83;100333.06;5114654;28;19911;-73
2021/06/17 09:48:29;;;;;;;;;;;;;;;32.02;43.86;100342.81;5113619;28;19923;-73
2021/06/17 09:50:55;;;;;;;;;;;;;;;32.10;44.59;100332.28;5114574;28;19951;-74
2021/06/17 09:53:24;;;;;;;;;;;;;;;31.43;48.64;100338.44;5114434;28;19935;-74
2021/06/17 09:55:50;;;;;;;;;;;;;;;31.39;44.12;100338.16;5113989;28;19911;-74
2021/06/17 09:58:35;;;;;;;;;;;;;;;31.31;45.27;100330.47;5113522;28;19922;-74
2021/06/17 10:01:01;;;;;;;;;;;;;;;31.32;47.59;100331.28;5114275;28;19993;-75
2021/06/17 10:03:27;;;;;;;;;;;;;;;31.11;50.23;100328.47;5114237;28;19915;-74
2021/06/17 10:05:52;;;;;;;;;;;;;;;30.94;47.13;100331.31;5114288;28;20014;-74
2021/06/17 10:08:18;;;;;;;;;;;;;;;31.03;49.11;100318.94;5113162;28;20389;-73
2021/06/17 10:10:44;;;;;;;;;;;;;;;31.02;50.25;100317.31;5113296;28;20119;-74
2021/06/17 10:13:09;;;;;;;;;;;;;;;31.27;48.63;100313.94;5113847;28;20408;-74
2021/06/17 10:15:35;;;;;;;;;;;;;;;31.23;48.78;100315.56;5113971;28;19915;-74
2021/06/17 10:18:00;;;;;;;;;;;;;;;31.34;50.50;100307.53;5112364;28;19918;-74
2021/06/17 10:20:26;;;;;;;;;;;;;;;31.36;49.10;100308.09;5111831;28;19969;-74
2021/06/17 10:22:56;;;;;;;;;;;;;;;31.25;47.71;100308.00;5113546;28;19959;-73
2021/06/17 10:25:26;;;;;;;;;;;;;;;31.05;47.58;100299.75;5113257;28;20002;-73
2021/06/17 10:27:57;;;;;;;;;;;;;;;31.14;51.05;100300.06;5113196;28;19916;-73
2021/06/17 10:30:36;;;;;;;;;;;;;;;31.29;52.20;100297.47;5094712;28;20021;-73
2021/06/17 10:33:02;;;;;;;;;;;;;;;31.13;46.10;100301.16;5113606;28;19954;-72
2021/06/17 10:35:28;;;;;;;;;;;;;;;31.53;50.65;100284.34;5113786;28;19974;-73
2021/06/17 10:37:54;;;;;;;;;;;;;;;31.76;47.06;100288.50;5113912;28;20007;-73
2021/06/17 10:40:23;;;;;;;;;;;;;;;31.68;47.31;100284.41;5113269;28;19912;-74
2021/06/17 10:42:51;;;;;;;;;;;;;;;31.67;43.56;100280.06;5113268;28;19971;-70
2021/06/17 10:45:32;;;;;;;;;;;;;;;31.67;44.92;100282.78;5094510;28;20014;-73
2021/06/17 10:47:59;;;;;;;;;;;;;;;31.94;46.78;100279.09;5110429;28;20397;-75
2021/06/17 10:50:29;;;;;;;;;;;;;;;32.28;47.93;100276.72;5113181;28;19915;-74
2021/06/17 10:53:15;;;;;;;;;;;;;;;32.31;42.18;100267.25;5111640;28;19912;-73
2021/06/17 10:55:54;;;;;;;;;;;;;;;32.21;41.13;100257.19;5112812;28;19912;-74
2021/06/17 10:58:38;;;;;;;;;;;;;;;32.19;45.21;100265.59;5112725;28;20298;-74
2021/06/17 11:01:20;;;;;;;;;;;;;;;32.39;44.04;100262.09;5113448;28;19919;-73
2021/06/17 11:03:45;;;;;;;;;;;;;;;31.82;39.79;100265.75;5112421;28;19930;-72
2021/06/17 11:06:10;;;;;;;;;;;;;;;31.32;42.67;100277.16;5113212;28;19912;-71
2021/06/17 11:08:36;;;;;;;;;;;;;;;30.46;47.28;100286.25;5112384;28;19924;-73
2021/06/17 11:11:04;;;;;;;;;;;;;;;30.63;47.53;100291.53;5113481;28;19918;-73
2021/06/17 11:13:39;;;;;;;;;;;;;;;30.27;51.19;100291.22;5112838;28;19918;-72
2021/06/17 11:16:06;;;;;;;;;;;;;;;29.44;51.55;100282.38;5094921;28;20002;-72
2021/06/17 11:18:52;;;;;;;;;;;;;;;29.58;54.62;100270.94;5112376;28;19915;-72
2021/06/17 11:21:21;;;;;;;;;;;;;;;28.85;58.27;100266.66;5111691;28;20325;-72
2021/06/17 11:23:46;;;;;;;;;;;;;;;29.35;55.43;100268.47;5112028;28;19912;-71
2021/06/17 11:26:32;;;;;;;;;;;;;;;29.32;55.90;100269.78;5112430;28;20297;-72
2021/06/17 11:28:57;;;;;;;;;;;;;;;29.09;56.76;100272.69;5112493;28;20015;-72
2021/06/17 11:31:36;;;;;;;;;;;;;;;28.90;56.04;100274.81;5094556;28;20006;-74
2021/06/17 11:34:01;;;;;;;;;;;;;;;27.76;61.00;100270.34;5112453;28;19912;-73
2021/06/17 11:36:27;;;;;;;;;;;;;;;28.13;58.11;100270.81;5112956;28;19919;-72
2021/06/17 11:38:53;;;;;;;;;;;;;;;27.54;52.41;100272.84;5112971;28;19915;-73
2021/06/17 11:41:20;;;;;;;;;;;;;;;27.50;59.47;100266.28;5112884;28;19920;-73
2021/06/17 11:44:00;;;;;;;;;;;;;;;27.91;58.86;100264.44;5112895;28;19912;-73
2021/06/17 11:46:29;;;;;;;;;;;;;;;27.94;59.08;100266.66;5096021;28;20010;-74
2021/06/17 11:49:05;;;;;;;;;;;;;;;28.01;55.28;100267.31;5117008;28;19911;-72
2021/06/17 11:51:41;;;;;;;;;;;;;;;28.40;57.55;100262.16;5116879;28;19912;-74
2021/06/17 11:54:07;;;;;;;;;;;;;;;28.62;52.07;100256.84;5116873;28;19911;-75
2021/06/17 11:56:33;;;;;;;;;;;;;;;28.74;52.04;100254.88;5116636;28;19919;-73
2021/06/17 11:59:15;;;;;;;;;;;;;;;28.82;47.27;100262.59;5116791;28;19915;-71
2021/06/17 12:02:00;;;;;;;;;;;;;;;28.88;49.63;100253.47;5116718;28;19912;-73
2021/06/17 12:04:37;;;;;;;;;;;;;;;28.73;49.55;100253.25;5116900;28;19912;-73
2021/06/17 12:07:03;;;;;;;;;;;;;;;28.89;49.34;100257.84;5116496;28;19968;-72
2021/06/17 12:09:28;;;;;;;;;;;;;;;28.46;48.82;100250.41;5116383;28;19922;-74
2021/06/17 12:12:10;;;;;;;;;;;;;;;28.40;51.11;100256.75;5116652;28;19912;-74
2021/06/17 12:14:42;;;;;;;;;;;;;;;28.42;50.65;100252.75;5117009;28;19918;-73
2021/06/17 12:17:08;;;;;;;;;;;;;;;28.81;50.81;100247.44;5116772;28;19988;-73
2021/06/17 12:19:33;;;;;;;;;;;;;;;29.13;53.40;100254.97;5116143;28;19961;-73
2021/06/17 12:22:08;;;;;;;;;;;;;;;29.32;51.55;100247.38;5116302;28;19919;-74
2021/06/17 12:24:34;;;;;;;;;;;;;;;29.14;54.40;100254.72;5116198;28;19950;-73
2021/06/17 12:26:59;;;;;;;;;;;;;;;29.34;51.72;100259.56;5116102;28;19931;-74
2021/06/17 12:29:26;;;;;;;;;;;;;;;29.06;48.69;100252.44;5116043;28;19915;-73
2021/06/17 12:31:56;;;;;;;;;;;;;;;29.09;48.11;100251.13;5116293;28;19912;-72
2021/06/17 12:34:21;;;;;;;;;;;;;;;28.73;48.24;100236.28;5116160;28;19912;-72
2021/06/17 12:37:00;;;;;;;;;;;;;;;28.96;46.84;100241.47;5097483;28;19912;-72